Time;durP1;ratioP1;P1;durP2;ratioP2;P2;SDS_P1;SDS_P2;PMS_P1;PMS_P2;Temp;Humidity;BMP_temperature;BMP_pressure;BME280_temperature;BME280_humidity;BME280_pressure;Samples;Min_cycle;Max_cycle;Signal;HPM_P1;HPM_P2
2021/10/12 00:00:45;;;;;;;;;8.00;6.00;;;;;14.96;57.52;102185.44;2070883;28;48176;-48
2021/10/12 00:01:45;;;;;;;;;4.67;4.67;;;;;14.97;57.37;102183.63;2081908;28;47284;-48
2021/10/12 00:02:46;;;;;;;;;7.00;7.00;;;;;14.95;57.64;102178.31;2086103;28;47196;-49
2021/10/12 00:03:47;;;;;;;;;6.75;6.00;;;;;14.95;57.60;102178.31;2090243;28;48154;-51
2021/10/12 00:04:47;;;;;;;;;6.67;6.67;;;;;14.94;57.62;102181.03;2091148;28;47318;-50
2021/10/12 00:05:48;;;;;;;;;6.67;6.00;;;;;14.93;57.57;102184.59;2090858;28;45545;-51
2021/10/12 00:06:48;;;;;;;;;5.67;5.67;;;;;14.92;57.51;102178.38;2091492;28;45217;-47
2021/10/12 00:07:49;;;;;;;;;6.00;6.00;;;;;14.92;57.60;102181.06;2088985;28;47367;-48
2021/10/12 00:08:49;;;;;;;;;7.00;7.00;;;;;14.92;57.77;102182.84;2086769;28;48161;-50
2021/10/12 00:09:50;;;;;;;;;7.00;7.00;;;;;14.91;57.52;102184.63;2089726;28;47187;-48
2021/10/12 00:10:50;;;;;;;;;8.00;6.33;;;;;14.91;57.69;102178.41;2090849;28;47248;-49
2021/10/12 00:11:52;;;;;;;;;7.67;6.67;;;;;14.90;57.83;102185.53;2090783;28;47624;-49
2021/10/12 00:12:52;;;;;;;;;5.75;5.00;;;;;14.90;57.88;102190.00;2091202;28;47145;-51
2021/10/12 00:13:53;;;;;;;;;5.33;5.33;;;;;14.90;57.54;102195.34;2090530;28;46952;-47
2021/10/12 00:14:54;;;;;;;;;7.33;6.33;;;;;14.88;57.53;102191.84;2091232;28;48785;-50
2021/10/12 00:15:54;;;;;;;;;5.67;5.00;;;;;14.87;57.55;102190.06;2090742;28;47151;-50
2021/10/12 00:16:55;;;;;;;;;8.00;8.00;;;;;14.86;57.53;102190.94;2091312;28;46404;-47
2021/10/12 00:17:55;;;;;;;;;7.33;7.00;;;;;14.86;57.55;102196.28;2090423;28;47069;-49
2021/10/12 00:18:56;;;;;;;;;6.67;6.67;;;;;14.83;57.74;102186.53;2091017;28;48211;-50
2021/10/12 00:19:56;;;;;;;;;8.00;7.67;;;;;14.84;57.43;102187.41;2090899;28;47105;-50
2021/10/12 00:20:57;;;;;;;;;5.33;5.33;;;;;14.82;57.59;102182.09;2091720;28;47362;-51
2021/10/12 00:21:58;;;;;;;;;7.00;7.00;;;;;14.82;57.83;102184.78;2092147;28;48235;-47
2021/10/12 00:22:59;;;;;;;;;7.00;6.00;;;;;14.80;57.62;102183.91;2092561;28;47611;-49
2021/10/12 00:23:59;;;;;;;;;6.00;5.00;;;;;14.80;57.98;102183.03;2092101;28;48143;-48
2021/10/12 00:25:00;;;;;;;;;6.00;6.00;;;;;14.80;57.62;102193.72;2091982;28;47152;-51
2021/10/12 00:26:00;;;;;;;;;8.00;8.00;;;;;14.78;57.65;102190.22;2091166;28;48516;-47
2021/10/12 00:27:01;;;;;;;;;6.00;5.67;;;;;14.77;57.90;102192.00;2092529;28;48174;-49
2021/10/12 00:28:02;;;;;;;;;9.33;7.00;;;;;14.76;57.83;102192.03;2092040;28;48616;-47
2021/10/12 00:29:03;;;;;;;;;7.25;6.00;;;;;14.75;57.76;102187.59;2092478;28;44924;-50
2021/10/12 00:30:05;;;;;;;;;5.00;5.00;;;;;14.75;58.03;102184.91;2091449;28;47496;-52
2021/10/12 00:31:05;;;;;;;;;7.50;7.50;;;;;14.74;58.18;102181.34;2091897;28;47417;-48
2021/10/12 00:32:06;;;;;;;;;7.00;7.00;;;;;14.73;58.21;102179.56;2092232;28;47260;-50
2021/10/12 00:33:06;;;;;;;;;8.00;7.00;;;;;14.73;57.98;102176.91;2092428;28;47765;-50
2021/10/12 00:34:07;;;;;;;;;7.67;6.67;;;;;14.73;57.93;102176.91;2092223;28;47094;-50
2021/10/12 00:35:08;;;;;;;;;8.25;6.75;;;;;14.72;57.93;102178.69;2091453;28;47460;-48
2021/10/12 00:36:09;;;;;;;;;7.67;7.00;;;;;14.71;57.96;102187.59;2091776;28;48217;-50
2021/10/12 00:37:12;;;;;;;;;7.00;7.00;;;;;14.71;58.33;102178.72;2092053;28;47003;-51
2021/10/12 00:38:13;;;;;;;;;6.75;6.00;;;;;14.70;58.24;102176.94;2092169;28;48538;-51
2021/10/12 00:39:13;;;;;;;;;7.33;6.00;;;;;14.68;58.20;102176.97;2092120;28;48029;-50
2021/10/12 00:40:14;;;;;;;;;8.00;8.00;;;;;14.68;58.00;102170.75;2091577;28;48383;-49
2021/10/12 00:41:14;;;;;;;;;6.33;6.33;;;;;14.67;58.25;102171.66;2091390;28;47382;-48
2021/10/12 00:42:15;;;;;;;;;6.33;6.33;;;;;14.66;58.23;102169.91;2092309;28;47463;-50
2021/10/12 00:43:17;;;;;;;;;6.00;6.00;;;;;14.65;58.08;102170.81;2092047;28;47392;-49
2021/10/12 00:44:18;;;;;;;;;7.75;7.00;;;;;14.64;58.23;102169.94;2083124;28;48602;-53
2021/10/12 00:45:18;;;;;;;;;5.33;5.33;;;;;14.64;58.21;102169.03;2077542;28;46977;-49
2021/10/12 00:46:19;;;;;;;;;8.33;7.67;;;;;14.61;58.37;102175.31;2091592;28;47277;-51
2021/10/12 00:47:19;;;;;;;;;6.00;6.00;;;;;14.61;58.36;102169.06;2092057;28;45268;-51
2021/10/12 00:48:20;;;;;;;;;11.33;8.00;;;;;14.61;58.08;102171.75;2092397;28;47179;-51
2021/10/12 00:49:20;;;;;;;;;5.00;4.00;;;;;14.61;58.52;102169.06;2091766;28;47067;-51
2021/10/12 00:50:20;;;;;;;;;9.00;6.67;;;;;14.60;58.21;102164.63;2092295;28;48149;-52
2021/10/12 00:51:21;;;;;;;;;8.33;7.33;;;;;14.59;58.24;102160.19;2091300;28;47183;-48
2021/10/12 00:52:21;;;;;;;;;9.00;8.00;;;;;14.59;58.25;102161.06;2083199;28;45744;-52
2021/10/12 00:53:22;;;;;;;;;5.67;5.67;;;;;14.58;58.44;102158.44;2091161;28;47087;-53
2021/10/12 00:54:22;;;;;;;;;6.00;6.00;;;;;14.59;58.70;102161.06;2086455;28;46800;-51
2021/10/12 00:55:23;;;;;;;;;7.67;6.00;;;;;14.57;58.56;102160.22;2091502;28;47122;-51
2021/10/12 00:56:24;;;;;;;;;7.67;7.67;;;;;14.58;58.72;102158.44;2092304;28;47701;-51
2021/10/12 00:57:24;;;;;;;;;6.00;5.00;;;;;14.57;58.38;102154.00;2092037;28;47176;-49
2021/10/12 00:58:25;;;;;;;;;8.00;7.00;;;;;14.58;58.77;102163.78;2092006;28;47041;-49
2021/10/12 00:59:25;;;;;;;;;6.67;6.67;;;;;14.57;58.48;102162.00;2091989;28;48244;-49
2021/10/12 01:00:26;;;;;;;;;6.33;5.33;;;;;14.56;58.67;102150.44;2092261;28;48119;-48
2021/10/12 01:01:26;;;;;;;;;7.00;7.00;;;;;14.56;58.37;102145.09;2091996;28;48426;-51
2021/10/12 01:02:30;;;;;;;;;5.00;5.00;;;;;14.57;58.69;102157.56;2092183;28;48318;-51
2021/10/12 01:03:31;;;;;;;;;7.25;6.00;;;;;14.56;58.27;102146.88;2090474;28;46894;-52
2021/10/12 01:04:31;;;;;;;;;6.00;5.00;;;;;14.56;58.76;102145.09;2091448;28;47230;-51
2021/10/12 01:05:33;;;;;;;;;6.00;5.67;;;;;14.56;58.69;102138.88;2099730;27;47012;-49
2021/10/12 01:06:34;;;;;;;;;6.00;6.00;;;;;14.57;58.42;102149.53;2091541;28;48142;-51
2021/10/12 01:07:34;;;;;;;;;7.00;7.00;;;;;14.57;58.43;102141.53;2091305;28;47279;-49
2021/10/12 01:08:35;;;;;;;;;8.00;8.00;;;;;14.59;58.71;102145.03;2092066;28;47240;-50
2021/10/12 01:09:36;;;;;;;;;7.33;7.00;;;;;14.58;58.75;102137.06;2091852;28;47403;-51
2021/10/12 01:10:36;;;;;;;;;6.67;6.67;;;;;14.58;58.34;102139.72;2092137;28;47228;-51
2021/10/12 01:11:37;;;;;;;;;5.00;5.00;;;;;14.58;58.51;102142.41;2092509;28;46212;-51
2021/10/12 01:12:38;;;;;;;;;8.00;8.00;;;;;14.57;58.39;102141.53;2092066;28;45266;-48
2021/10/12 01:13:39;;;;;;;;;6.25;6.00;;;;;14.57;58.73;102138.84;2091765;28;48128;-50
2021/10/12 01:14:39;;;;;;;;;7.00;7.00;;;;;14.57;58.83;102143.31;2091256;28;46291;-50
2021/10/12 01:15:40;;;;;;;;;6.00;6.00;;;;;14.57;58.75;102137.97;2091450;28;47599;-47
2021/10/12 01:16:40;;;;;;;;;6.67;6.67;;;;;14.56;58.86;102133.53;2092160;28;47181;-51
2021/10/12 01:17:41;;;;;;;;;7.33;7.33;;;;;14.56;58.58;102130.88;2091844;28;48322;-50
2021/10/12 01:19:05;;;;;;;;;8.00;7.00;;;;;14.55;58.62;102126.44;2091808;28;45409;-47
2021/10/12 01:20:09;;;;;;;;;5.00;5.00;;;;;14.55;58.53;102131.78;2091993;28;47370;-50
2021/10/12 01:21:10;;;;;;;;;8.25;7.75;;;;;14.54;58.51;102130.88;2091883;28;47260;-51
2021/10/12 01:22:10;;;;;;;;;6.67;5.33;;;;;14.54;58.55;102136.22;2092061;28;48061;-47
2021/10/12 01:23:13;;;;;;;;;6.00;5.67;;;;;14.55;58.91;102129.97;2091759;28;47081;-50
2021/10/12 01:24:15;;;;;;;;;11.00;7.75;;;;;14.55;58.72;102131.78;2092034;28;47257;-50
2021/10/12 01:25:16;;;;;;;;;5.25;5.25;;;;;14.54;58.34;102128.22;2091888;28;47454;-48
2021/10/12 01:26:16;;;;;;;;;6.00;6.00;;;;;14.55;58.74;102126.44;2090891;28;47301;-48
2021/10/12 01:27:21;;;;;;;;;7.33;7.33;;;;;14.54;58.58;102122.88;2083519;28;47324;-51
2021/10/12 01:28:22;;;;;;;;;6.75;6.75;;;;;14.54;58.73;102122.00;2091525;28;47470;-51
2021/10/12 01:29:22;;;;;;;;;7.00;5.00;;;;;14.53;58.45;102117.56;2091626;27;48030;-47
2021/10/12 01:30:23;;;;;;;;;6.00;6.00;;;;;14.52;58.59;102121.16;2092036;28;47388;-52
2021/10/12 01:31:26;;;;;;;;;5.00;5.00;;;;;14.50;58.64;102118.50;2091776;28;48260;-47
2021/10/12 01:32:27;;;;;;;;;7.25;5.75;;;;;14.50;58.54;102118.50;2091097;28;47165;-50
2021/10/12 01:33:27;;;;;;;;;8.00;7.00;;;;;14.49;58.50;102116.75;2091561;28;47228;-49
2021/10/12 01:34:28;;;;;;;;;8.00;8.00;;;;;14.48;58.90;102120.28;2091199;28;47727;-52
2021/10/12 01:35:28;;;;;;;;;5.00;5.00;;;;;14.48;59.00;102119.41;2091178;28;47101;-51
2021/10/12 01:36:29;;;;;;;;;8.67;6.00;;;;;14.48;58.53;102108.72;2092023;28;47204;-48
2021/10/12 01:37:30;;;;;;;;;5.00;5.00;;;;;14.47;58.94;102105.16;2091526;28;48117;-50
2021/10/12 01:38:32;;;;;;;;;6.75;6.75;;;;;14.47;58.68;102105.16;2091878;28;47984;-49
2021/10/12 01:39:32;;;;;;;;;6.75;6.75;;;;;14.47;58.90;102091.81;2091696;28;48167;-53
2021/10/12 01:40:33;;;;;;;;;6.33;5.00;;;;;14.46;58.76;102092.72;2083905;28;45396;-48
2021/10/12 01:41:34;;;;;;;;;7.00;6.00;;;;;14.45;58.67;102090.97;2090281;28;48155;-51
2021/10/12 01:42:35;;;;;;;;;7.00;6.00;;;;;14.46;58.76;102086.50;2093039;28;48059;-49
2021/10/12 01:43:35;;;;;;;;;5.25;4.75;;;;;14.45;58.88;102087.41;2091676;28;47426;-49
2021/10/12 01:44:36;;;;;;;;;10.00;7.00;;;;;14.46;58.84;102086.50;2091660;28;48288;-50
2021/10/12 01:45:38;;;;;;;;;7.67;7.67;;;;;14.45;58.92;102084.72;2091581;28;47264;-47
2021/10/12 01:46:39;;;;;;;;;7.00;7.00;;;;;14.45;59.07;102084.72;2088318;28;45483;-52
2021/10/12 01:47:40;;;;;;;;;6.00;6.00;;;;;14.45;58.86;102082.06;2086944;28;46253;-49
2021/10/12 01:48:41;;;;;;;;;8.75;7.00;;;;;14.43;58.66;102082.94;2091227;28;47225;-48
2021/10/12 01:49:41;;;;;;;;;6.67;6.00;;;;;14.43;58.92;102082.94;2091090;28;47353;-49
2021/10/12 01:50:42;;;;;;;;;7.67;6.00;;;;;14.43;58.57;102084.72;2091563;28;45478;-51
2021/10/12 01:51:42;;;;;;;;;6.67;6.67;;;;;14.43;58.57;102084.72;2091038;28;48391;-47
2021/10/12 01:52:43;;;;;;;;;7.33;6.33;;;;;14.43;58.67;102087.41;2091932;28;46111;-51
2021/10/12 01:53:43;;;;;;;;;6.00;5.00;;;;;14.42;58.66;102089.19;2089728;28;48137;-50
2021/10/12 01:54:44;;;;;;;;;7.00;6.33;;;;;14.42;58.90;102090.97;2083083;28;47187;-47
2021/10/12 01:55:44;;;;;;;;;7.00;6.00;;;;;14.42;58.72;102093.66;2086753;28;47479;-51
2021/10/12 01:56:46;;;;;;;;;9.67;7.67;;;;;14.41;59.01;102092.78;2088914;28;48260;-51
2021/10/12 01:57:47;;;;;;;;;6.25;6.25;;;;;14.40;59.10;102093.69;2085455;28;47401;-50
2021/10/12 01:58:50;;;;;;;;;7.67;6.00;;;;;14.41;59.00;102099.91;2091873;28;47271;-54
2021/10/12 01:59:51;;;;;;;;;6.75;6.75;;;;;14.40;58.82;102091.00;2091382;28;47529;-48
2021/10/12 02:00:51;;;;;;;;;6.67;5.67;;;;;14.40;58.69;102095.47;2091351;28;47073;-49
2021/10/12 02:01:52;;;;;;;;;7.00;7.00;;;;;14.37;59.05;102096.41;2091082;28;46464;-49
2021/10/12 02:02:52;;;;;;;;;6.33;5.67;;;;;14.37;58.87;102088.41;2091567;28;47280;-48
2021/10/12 02:03:53;;;;;;;;;7.00;7.00;;;;;14.37;58.93;102090.19;2090906;28;47268;-48
2021/10/12 02:04:53;;;;;;;;;6.00;5.67;;;;;14.36;58.72;102096.44;2090983;28;47054;-51
2021/10/12 02:05:53;;;;;;;;;7.00;5.33;;;;;14.37;58.79;102100.88;2091666;28;47183;-50
2021/10/12 02:06:55;;;;;;;;;8.00;8.00;;;;;14.36;59.04;102104.44;2091782;28;47345;-47
2021/10/12 02:07:55;;;;;;;;;7.25;6.00;;;;;14.36;59.23;102110.66;2091515;28;46258;-50
2021/10/12 02:08:56;;;;;;;;;8.00;7.00;;;;;14.33;58.79;102108.00;2091775;28;47287;-47
2021/10/12 02:09:56;;;;;;;;;8.00;7.00;;;;;14.33;59.18;102104.47;2091561;28;47071;-52
2021/10/12 02:10:57;;;;;;;;;7.33;7.33;;;;;14.31;59.20;102101.81;2091991;28;47398;-51
2021/10/12 02:11:57;;;;;;;;;5.00;5.00;;;;;14.31;58.87;102098.28;2091125;28;45266;-49
2021/10/12 02:12:58;;;;;;;;;8.00;8.00;;;;;14.30;59.19;102094.72;2090949;28;48305;-47
2021/10/12 02:13:59;;;;;;;;;6.00;6.00;;;;;14.31;59.25;102090.25;2091627;28;48049;-48
2021/10/12 02:14:59;;;;;;;;;7.00;6.00;;;;;14.30;59.07;102085.81;2091590;28;47205;-52
2021/10/12 02:16:00;;;;;;;;;8.67;8.00;;;;;14.28;59.13;102085.84;2091597;28;48264;-49
2021/10/12 02:17:01;;;;;;;;;7.00;5.00;;;;;14.28;59.02;102084.97;2091716;28;48298;-50
2021/10/12 02:18:01;;;;;;;;;5.67;5.67;;;;;14.28;59.35;102088.53;2091484;28;47099;-48
2021/10/12 02:19:02;;;;;;;;;6.00;6.00;;;;;14.28;59.24;102084.97;2091409;28;48083;-49
2021/10/12 02:20:04;;;;;;;;;6.33;5.67;;;;;14.27;59.30;102084.09;2091779;28;48171;-52
2021/10/12 02:21:05;;;;;;;;;6.25;6.00;;;;;14.26;59.21;102082.34;2091061;28;47401;-47
2021/10/12 02:22:05;;;;;;;;;6.33;6.33;;;;;14.26;59.16;102093.00;2083102;28;47475;-49
2021/10/12 02:23:06;;;;;;;;;7.00;7.00;;;;;14.24;58.90;102078.81;2090689;28;48134;-50
2021/10/12 02:24:06;;;;;;;;;8.00;6.00;;;;;14.25;59.26;102075.22;2099517;28;48203;-52
2021/10/12 02:25:09;;;;;;;;;6.00;6.00;;;;;14.25;59.06;102077.03;2090916;28;47383;-50
2021/10/12 02:26:09;;;;;;;;;10.25;7.50;;;;;14.24;58.92;102069.91;2091145;28;47483;-47
2021/10/12 02:27:10;;;;;;;;;8.00;8.00;;;;;14.22;59.07;102064.56;2091490;28;48329;-51
2021/10/12 02:28:11;;;;;;;;;5.33;5.33;;;;;14.22;59.12;102053.00;2091141;28;46209;-52
2021/10/12 02:29:11;;;;;;;;;9.00;9.00;;;;;14.22;59.02;102053.00;2088221;28;47611;-49
2021/10/12 02:30:13;;;;;;;;;5.67;5.67;;;;;14.21;59.25;102053.91;2087324;28;46863;-50
2021/10/12 02:31:15;;;;;;;;;8.50;7.25;;;;;14.20;59.29;102054.81;2091209;28;47301;-48
2021/10/12 02:32:16;;;;;;;;;6.50;6.00;;;;;14.18;59.05;102060.19;2091718;28;48224;-51
2021/10/12 02:33:17;;;;;;;;;7.00;7.00;;;;;14.15;59.28;102057.56;2091480;28;47579;-47
2021/10/12 02:34:17;;;;;;;;;6.67;6.67;;;;;14.12;59.17;102062.97;2090894;28;47356;-51
2021/10/12 02:35:18;;;;;;;;;8.33;7.00;;;;;14.10;59.28;102065.66;2090710;28;47426;-51
2021/10/12 02:36:18;;;;;;;;;7.00;7.00;;;;;14.09;59.09;102071.88;2091657;28;48039;-50
2021/10/12 02:37:19;;;;;;;;;6.00;6.00;;;;;14.08;59.21;102075.47;2091368;28;48340;-50
2021/10/12 02:38:20;;;;;;;;;8.00;7.00;;;;;14.07;59.43;102075.47;2091299;28;47294;-49
2021/10/12 02:39:20;;;;;;;;;9.00;8.00;;;;;14.05;59.25;102080.84;2091662;28;47486;-48
2021/10/12 02:40:22;;;;;;;;;7.33;7.33;;;;;14.04;59.41;102084.44;2091555;28;47961;-48
2021/10/12 02:41:22;;;;;;;;;7.25;7.25;;;;;14.04;59.19;102080.88;2091524;28;47282;-49
2021/10/12 02:42:23;;;;;;;;;6.00;5.33;;;;;14.04;59.41;102075.53;2093249;28;48178;-46
2021/10/12 02:43:24;;;;;;;;;7.75;7.75;;;;;14.03;59.37;102076.44;2096388;27;47256;-48
2021/10/12 02:44:25;;;;;;;;;6.33;6.33;;;;;14.03;59.30;102068.44;2091465;28;47043;-51
2021/10/12 02:45:25;;;;;;;;;6.33;6.33;;;;;14.01;59.54;102071.13;2092293;28;48395;-49
2021/10/12 02:46:26;;;;;;;;;6.00;6.00;;;;;14.00;59.50;102069.38;2090799;28;47881;-49
2021/10/12 02:47:26;;;;;;;;;7.00;7.00;;;;;14.00;59.50;102072.03;2090620;28;46200;-49
2021/10/12 02:48:26;;;;;;;;;7.00;6.00;;;;;13.99;59.82;102064.06;2091438;28;48173;-51
2021/10/12 02:49:27;;;;;;;;;9.33;7.33;;;;;13.99;59.56;102061.38;2091301;28;47057;-50
2021/10/12 02:50:29;;;;;;;;;6.33;5.67;;;;;13.97;59.66;102050.69;2091679;28;45033;-49
2021/10/12 02:51:29;;;;;;;;;8.50;8.50;;;;;13.98;59.53;102060.50;2091429;28;47349;-49
2021/10/12 02:52:30;;;;;;;;;8.33;8.33;;;;;13.98;59.34;102049.81;2091539;28;47402;-50
2021/10/12 02:53:30;;;;;;;;;9.33;8.00;;;;;13.97;59.33;102055.16;2091316;28;47062;-50
2021/10/12 02:54:32;;;;;;;;;8.00;7.00;;;;;13.96;59.37;102053.41;2091487;28;48153;-50
2021/10/12 02:55:32;;;;;;;;;7.25;7.25;;;;;13.96;59.50;102056.06;2091488;28;48042;-48
2021/10/12 02:56:33;;;;;;;;;6.00;6.00;;;;;13.95;59.58;102054.31;2091363;28;48146;-47
2021/10/12 02:57:33;;;;;;;;;8.33;8.33;;;;;13.94;59.47;102055.22;2091406;28;47365;-48
2021/10/12 02:58:34;;;;;;;;;9.00;7.00;;;;;13.92;59.59;102065.03;2091374;28;47309;-49
2021/10/12 02:59:34;;;;;;;;;7.00;7.00;;;;;13.91;59.63;102066.81;2088687;28;47303;-49
2021/10/12 03:00:35;;;;;;;;;7.67;7.67;;;;;13.92;59.48;102060.56;2086154;28;48074;-50
2021/10/12 03:01:35;;;;;;;;;5.00;5.00;;;;;13.91;59.83;102056.16;2090965;28;46124;-51
2021/10/12 03:02:36;;;;;;;;;8.00;8.00;;;;;13.91;59.93;102053.47;2091356;28;47749;-52
2021/10/12 03:03:36;;;;;;;;;7.33;7.33;;;;;13.90;59.85;102041.03;2091045;28;47441;-50
2021/10/12 03:04:37;;;;;;;;;6.33;6.33;;;;;13.91;59.65;102045.47;2090199;28;47149;-50
2021/10/12 03:05:42;;;;;;;;;10.00;9.00;;;;;13.91;59.88;102050.81;2090965;28;46503;-46
2021/10/12 03:06:43;;;;;;;;;7.50;7.25;;;;;13.91;59.94;102049.94;2090881;28;47446;-50
2021/10/12 03:07:43;;;;;;;;;7.67;6.33;;;;;13.90;59.76;102051.72;2090678;28;48034;-47
2021/10/12 03:08:44;;;;;;;;;5.33;5.33;;;;;13.91;59.65;102057.94;2091355;28;45332;-50
2021/10/12 03:09:44;;;;;;;;;6.67;5.33;;;;;13.90;59.56;102056.16;2091248;28;47998;-47
2021/10/12 03:10:45;;;;;;;;;11.00;9.67;;;;;13.89;59.91;102057.06;2091820;28;47150;-50
2021/10/12 03:11:45;;;;;;;;;10.00;9.33;;;;;13.89;59.70;102060.63;2091197;28;47085;-49
2021/10/12 03:12:46;;;;;;;;;9.00;9.00;;;;;13.89;59.87;102060.63;2091474;28;47989;-48
2021/10/12 03:13:46;;;;;;;;;9.67;8.00;;;;;13.89;59.59;102065.09;2091153;28;47334;-48
2021/10/12 03:14:47;;;;;;;;;7.33;7.33;;;;;13.87;59.77;102073.13;2091633;28;47965;-47
2021/10/12 03:15:47;;;;;;;;;9.00;7.33;;;;;13.86;59.63;102073.13;2090977;28;47145;-50
2021/10/12 03:16:48;;;;;;;;;9.33;7.67;;;;;13.86;59.69;102071.34;2091543;28;47133;-48
2021/10/12 03:17:48;;;;;;;;;6.33;6.00;;;;;13.86;59.85;102054.47;2090798;28;48230;-51
2021/10/12 03:18:50;;;;;;;;;6.00;6.00;;;;;13.85;59.75;102056.25;2091229;28;47368;-48
2021/10/12 03:19:51;;;;;;;;;6.00;6.00;;;;;13.84;59.65;102057.13;2091225;28;48407;-50
2021/10/12 03:20:51;;;;;;;;;7.00;7.00;;;;;13.84;59.71;102055.34;2082380;28;46934;-48
2021/10/12 03:22:01;;;;;;;;;8.00;8.00;;;;;13.84;59.60;102046.44;2081360;28;47221;-52
2021/10/12 03:23:01;;;;;;;;;9.25;6.25;;;;;13.83;59.71;102050.91;2090692;28;47357;-52
2021/10/12 03:24:02;;;;;;;;;2.33;2.33;;;;;13.83;59.88;102039.34;2090453;28;47451;-51
2021/10/12 03:25:03;;;;;;;;;7.75;5.75;;;;;13.83;59.81;102037.56;2091478;28;47488;-48
2021/10/12 03:26:04;;;;;;;;;7.67;7.33;;;;;13.83;59.76;102034.91;2090364;28;47551;-49
2021/10/12 03:27:06;;;;;;;;;7.67;7.00;;;;;13.83;59.55;102028.66;2090827;28;47932;-47
2021/10/12 03:28:07;;;;;;;;;9.75;6.25;;;;;13.82;59.63;102033.13;2091254;28;47385;-49
2021/10/12 03:29:07;;;;;;;;;8.67;6.00;;;;;13.81;59.56;102031.38;2091322;28;47388;-48
2021/10/12 03:30:08;;;;;;;;;9.00;7.67;;;;;13.80;59.77;102018.94;2086857;28;47231;-49
2021/10/12 03:31:09;;;;;;;;;7.75;7.75;;;;;13.80;59.77;102028.72;2082680;28;48167;-52
2021/10/12 03:32:09;;;;;;;;;8.33;7.67;;;;;13.78;59.53;102019.88;2089501;28;46264;-48
2021/10/12 03:33:10;;;;;;;;;7.33;7.00;;;;;13.78;59.61;102025.19;2082196;28;48131;-50
2021/10/12 03:34:10;;;;;;;;;8.00;8.00;;;;;13.77;60.04;102023.44;2090439;28;47143;-47
2021/10/12 03:35:14;;;;;;;;;6.67;6.67;;;;;13.76;59.91;102030.56;2091154;28;47500;-48
2021/10/12 03:36:18;;;;;;;;;7.25;6.50;;;;;13.75;59.88;102022.59;2090320;28;48019;-49
2021/10/12 03:37:18;;;;;;;;;9.50;6.50;;;;;13.74;59.85;102029.72;2090558;28;48021;-48
2021/10/12 03:38:19;;;;;;;;;7.00;6.00;;;;;13.73;59.84;102029.72;2090992;28;47090;-50
2021/10/12 03:39:20;;;;;;;;;6.00;6.00;;;;;13.72;59.90;102034.19;2083374;28;47195;-49
2021/10/12 03:40:21;;;;;;;;;7.50;7.50;;;;;13.71;59.93;102040.41;2090351;28;47534;-51
2021/10/12 03:41:22;;;;;;;;;7.00;7.00;;;;;13.71;59.88;102027.06;2090546;28;47322;-53
2021/10/12 03:42:22;;;;;;;;;6.00;6.00;;;;;13.71;60.18;102032.41;2091097;28;47259;-51
2021/10/12 03:43:25;;;;;;;;;10.00;9.00;;;;;13.71;60.05;102034.19;2091184;28;48155;-48
2021/10/12 03:44:26;;;;;;;;;8.50;6.50;;;;;13.71;60.13;102034.19;2091026;28;45112;-50
2021/10/12 03:45:26;;;;;;;;;11.33;8.67;;;;;13.71;59.96;102029.72;2093492;28;47735;-48
2021/10/12 03:46:27;;;;;;;;;7.33;7.33;;;;;13.70;59.90;102029.75;2090891;28;47340;-50
2021/10/12 03:47:27;;;;;;;;;6.00;6.00;;;;;13.70;60.22;102027.97;2091139;28;47118;-49
2021/10/12 03:48:28;;;;;;;;;8.00;8.00;;;;;13.70;60.11;102035.09;2091203;28;47207;-49
2021/10/12 03:49:28;;;;;;;;;5.67;5.67;;;;;13.70;60.12;102035.09;2090713;28;47264;-47
2021/10/12 03:50:29;;;;;;;;;7.00;7.00;;;;;13.68;59.89;102035.09;2091205;28;47142;-47
2021/10/12 03:51:29;;;;;;;;;8.25;8.00;;;;;13.68;60.10;102032.44;2090987;28;46169;-50
2021/10/12 03:52:30;;;;;;;;;7.00;7.00;;;;;13.68;60.07;102031.56;2091212;28;48363;-49
2021/10/12 03:53:30;;;;;;;;;5.33;5.33;;;;;13.66;60.21;102026.25;2090722;28;48180;-48
2021/10/12 03:54:31;;;;;;;;;8.00;7.67;;;;;13.67;60.14;102027.13;2091167;28;48295;-47
2021/10/12 03:55:31;;;;;;;;;8.33;7.33;;;;;13.67;60.09;102027.13;2090437;28;47327;-51
2021/10/12 03:56:32;;;;;;;;;7.00;7.00;;;;;13.66;60.01;102023.59;2087577;28;46634;-48
2021/10/12 03:57:32;;;;;;;;;6.67;6.00;;;;;13.66;60.12;102031.59;2090351;28;48262;-51
2021/10/12 03:58:33;;;;;;;;;7.00;7.00;;;;;13.67;60.24;102033.34;2091706;28;47419;-49
2021/10/12 03:59:33;;;;;;;;;6.33;6.33;;;;;13.66;60.18;102026.25;2092436;28;47193;-48
2021/10/12 04:00:34;;;;;;;;;5.33;5.33;;;;;13.66;60.23;102022.69;2092610;28;47509;-47
2021/10/12 04:01:35;;;;;;;;;6.00;6.00;;;;;13.65;60.18;102021.81;2091385;28;46161;-50
2021/10/12 04:02:35;;;;;;;;;6.67;5.33;;;;;13.65;60.35;102024.50;2091635;28;47160;-51
2021/10/12 04:03:36;;;;;;;;;7.00;6.33;;;;;13.66;60.32;102026.25;2089111;28;48385;-49
2021/10/12 04:04:36;;;;;;;;;7.33;7.33;;;;;13.65;60.37;102021.81;2089812;28;48179;-50
2021/10/12 04:05:37;;;;;;;;;5.00;5.00;;;;;13.66;60.06;102017.38;2091267;28;48083;-47
2021/10/12 04:06:37;;;;;;;;;8.33;8.33;;;;;13.65;60.12;102024.50;2092072;28;46174;-51
2021/10/12 04:07:38;;;;;;;;;7.50;7.00;;;;;13.65;60.21;102020.94;2092324;28;47428;-49
2021/10/12 04:08:38;;;;;;;;;8.33;7.33;;;;;13.65;60.30;102015.59;2092568;28;48290;-48
2021/10/12 04:09:38;;;;;;;;;6.75;6.75;;;;;13.63;60.30;102015.63;2091203;28;47092;-48
2021/10/12 04:10:40;;;;;;;;;7.00;6.75;;;;;13.63;60.19;102018.31;2091958;28;47188;-51
2021/10/12 04:11:40;;;;;;;;;7.80;7.80;;;;;13.63;60.28;102022.75;2092230;27;47354;-46
2021/10/12 04:12:41;;;;;;;;;8.00;6.33;;;;;13.63;60.15;102023.63;2092740;28;47300;-47
2021/10/12 04:13:41;;;;;;;;;7.67;7.67;;;;;13.63;60.33;102025.41;2092345;28;47124;-50
2021/10/12 04:14:42;;;;;;;;;9.50;6.50;;;;;13.63;60.10;102028.09;2092457;28;48162;-47
2021/10/12 04:15:42;;;;;;;;;6.00;5.50;;;;;13.62;60.19;102019.19;2092273;28;48205;-46
2021/10/12 04:16:43;;;;;;;;;6.67;6.00;;;;;13.62;60.16;102018.31;2092017;28;47900;-49
2021/10/12 04:17:43;;;;;;;;;7.67;7.67;;;;;13.61;60.31;102011.22;2091573;28;46770;-50
2021/10/12 04:18:44;;;;;;;;;6.33;6.00;;;;;13.60;60.06;102009.47;2092059;28;47330;-47
2021/10/12 04:19:44;;;;;;;;;6.75;6.75;;;;;13.60;60.15;102014.81;2091680;28;47124;-47
2021/10/12 04:20:45;;;;;;;;;6.00;5.00;;;;;13.60;60.23;102023.69;2091781;28;48071;-46
2021/10/12 04:21:45;;;;;;;;;7.00;5.33;;;;;13.60;60.46;102021.00;2085348;28;48240;-47
2021/10/12 04:22:46;;;;;;;;;6.75;6.75;;;;;13.61;60.26;102022.78;2088903;28;47165;-50
2021/10/12 04:23:46;;;;;;;;;8.00;6.00;;;;;13.60;60.33;102018.34;2092445;28;47336;-49
2021/10/12 04:24:48;;;;;;;;;7.67;7.67;;;;;13.61;60.25;102019.22;2092394;28;47233;-48
2021/10/12 04:25:49;;;;;;;;;8.00;8.00;;;;;13.60;60.29;102014.81;2092397;28;47414;-48
2021/10/12 04:26:49;;;;;;;;;7.33;7.33;;;;;13.60;60.38;102026.34;2091875;28;48015;-48
2021/10/12 04:27:53;;;;;;;;;8.67;7.67;;;;;13.59;60.17;102024.56;2091552;28;47384;-46
2021/10/12 04:28:53;;;;;;;;;5.80;5.80;;;;;13.59;60.36;102021.88;2092174;28;47052;-49
2021/10/12 04:29:54;;;;;;;;;9.00;7.00;;;;;13.60;60.47;102022.81;2092358;28;46899;-51
2021/10/12 04:30:54;;;;;;;;;6.33;6.33;;;;;13.59;60.28;102031.69;2091759;28;46143;-49
2021/10/12 04:31:55;;;;;;;;;7.00;6.75;;;;;13.58;60.48;102022.78;2091606;28;47953;-47
2021/10/12 04:32:56;;;;;;;;;4.75;4.75;;;;;13.59;60.58;102024.56;2092399;28;47172;-49
2021/10/12 04:33:56;;;;;;;;;8.50;7.75;;;;;13.59;60.53;102024.56;2090859;28;47957;-49
2021/10/12 04:34:57;;;;;;;;;7.25;6.25;;;;;13.59;60.39;102023.66;2083882;28;48034;-48
2021/10/12 04:35:57;;;;;;;;;4.00;4.00;;;;;13.58;60.49;102024.56;2090260;28;47248;-49
2021/10/12 04:36:58;;;;;;;;;7.75;6.75;;;;;13.58;60.73;102025.47;2082763;28;47830;-47
2021/10/12 04:37:58;;;;;;;;;5.33;5.33;;;;;13.57;60.42;102022.81;2091428;28;47324;-51
2021/10/12 04:38:59;;;;;;;;;6.00;6.00;;;;;13.57;60.56;102020.16;2091606;28;47131;-48
2021/10/12 04:39:59;;;;;;;;;6.67;5.67;;;;;13.56;60.46;102027.28;2091449;28;47239;-47
2021/10/12 04:41:02;;;;;;;;;8.00;6.00;;;;;13.57;60.49;102021.03;2084803;28;47447;-48
2021/10/12 04:42:04;;;;;;;;;4.25;4.25;;;;;13.54;60.57;102021.97;2091583;28;47136;-49
2021/10/12 04:43:06;;;;;;;;;5.60;5.60;;;;;13.55;60.37;102022.84;2083370;28;47458;-49